Terminal Aerodrome Forecast
Issued by NWS

Home | Current Version | Previous Version | Text Only | Print | Product List | Glossary On
Versions: 1 2 3 4 5 6 7 8 9 10 11 12 13 14 15 16 17 18 19 20 21 22 23 24 25 26 27 28
000
FTUS43 KLOT 151732
TAFMDW
TAF
KMDW 151732Z 1518/1624 29015G23KT P6SM SCT025 BKN040
     FM151900 27014G22KT P6SM -SN BKN025 OVC040
     FM152200 23009KT P6SM SCT025 OVC040
     FM160100 23007KT P6SM -SHSN BKN025 OVC040
     FM160400 20007KT P6SM SCT030 BKN080
     FM162100 16007KT P6SM FEW150=

USA.gov is the U.S. government's official web portal to all federal, state and local government web resources and services.